Ault, Colorado
Current Conditions -  °F | °C
As of 2:55 AM on Saturday 29 Nov 2014 (Local Time) from KGXY Reporting Station
Clear Clear  
Wind Chill: 28°   Ceiling: Unl
Heat Index: 34°   Visibility: 10mi
Dew Point: 18°   Wind: 7mph
Humidity: 52%   Direction: 70°ENE
Pressure: 29.71"   Gusts: NA
Location:  40.58°N, 104.73°W
Report Text: KGXY 290955Z AUTO 07006KT 10SM CLR 01/M08 A2971 RMK AO1
Loading
Personal Weather Stations






























Interactive Weather Map New forecast layout! Learn more

10-Day Weather Forecast

Advertisements
Track Severe Weather on mobile